createdAt,value
2019-03-19T00:02:18.282Z,12.63
2019-03-19T00:04:48.880Z,12.64
2019-03-19T00:07:21.012Z,12.60
2019-03-19T00:09:51.171Z,12.58
2019-03-19T00:12:22.621Z,12.35
2019-03-19T00:14:53.622Z,12.45
2019-03-19T00:17:25.176Z,12.34
2019-03-19T00:19:56.406Z,12.33
2019-03-19T00:22:27.935Z,12.41
2019-03-19T00:24:58.451Z,12.45
2019-03-19T00:27:28.610Z,12.40
2019-03-19T00:29:59.672Z,12.52
2019-03-19T00:32:30.322Z,12.45
2019-03-19T00:35:00.495Z,12.14
2019-03-19T00:37:31.241Z,12.23
2019-03-19T00:40:04.445Z,12.22
2019-03-19T00:42:35.050Z,12.26
2019-03-19T00:45:11.991Z,12.24
2019-03-19T00:47:42.702Z,12.23
2019-03-19T00:50:13.045Z,12.36
2019-03-19T00:52:44.563Z,12.43
2019-03-19T00:55:15.424Z,12.43
2019-03-19T00:57:45.604Z,12.40
2019-03-19T01:00:15.857Z,12.39
2019-03-19T01:02:46.459Z,12.40
2019-03-19T01:05:16.705Z,12.43
2019-03-19T01:07:47.975Z,12.39
2019-03-19T01:10:18.233Z,12.43
2019-03-19T01:12:52.241Z,12.38
2019-03-19T01:15:23.676Z,12.40
2019-03-19T01:17:56.152Z,12.42
2019-03-19T01:20:30.387Z,12.43
2019-03-19T01:23:01.549Z,12.43
2019-03-19T01:25:35.123Z,12.42
2019-03-19T01:28:09.353Z,12.38
2019-03-19T01:30:39.948Z,12.38
2019-03-19T01:33:10.235Z,12.38
2019-03-19T01:35:42.326Z,12.32
2019-03-19T01:38:13.445Z,12.34
2019-03-19T01:40:45.694Z,12.30
2019-03-19T01:43:15.917Z,12.27
2019-03-19T01:45:47.518Z,12.27
2019-03-19T01:48:18.346Z,12.26
2019-03-19T01:50:48.857Z,12.29
2019-03-19T01:53:20.932Z,12.27
2019-03-19T01:55:53.036Z,12.23
2019-03-19T01:58:26.111Z,12.19
2019-03-19T02:00:56.679Z,12.15
2019-03-19T02:03:28.706Z,12.12
2019-03-19T02:06:00.010Z,12.13
2019-03-19T02:08:32.079Z,12.10
2019-03-19T02:11:03.506Z,12.11
2019-03-19T02:13:35.601Z,12.10
2019-03-19T02:16:08.539Z,12.03
2019-03-19T02:18:40.622Z,12.05
2019-03-19T02:21:12.491Z,12.05
2019-03-19T02:23:45.397Z,12.05
2019-03-19T02:26:17.892Z,12.00
2019-03-19T02:28:48.178Z,11.95
2019-03-19T02:31:19.575Z,11.90
2019-03-19T02:33:50.841Z,11.82
2019-03-19T02:36:22.635Z,11.81
2019-03-19T02:38:54.604Z,11.82
2019-03-19T02:41:25.265Z,11.84
2019-03-19T02:43:56.483Z,11.77
2019-03-19T02:46:26.654Z,11.72
2019-03-19T02:48:59.905Z,11.57
2019-03-19T02:51:34.157Z,11.67
2019-03-19T02:54:07.183Z,11.58
2019-03-19T02:56:41.881Z,11.56
2019-03-19T02:59:13.845Z,11.52
2019-03-19T03:01:47.226Z,11.53
2019-03-19T03:04:19.059Z,11.44
2019-03-19T03:06:49.818Z,11.42
2019-03-19T03:09:22.070Z,11.20
2019-03-19T03:11:52.571Z,11.22
2019-03-19T03:14:23.491Z,11.01
2019-03-19T03:16:53.656Z,11.13
2019-03-19T03:19:26.644Z,11.08
2019-03-19T03:21:58.950Z,11.23
2019-03-19T03:24:31.777Z,11.19
2019-03-19T03:27:03.405Z,11.21
2019-03-19T03:29:35.404Z,11.23
2019-03-19T03:32:05.938Z,11.22
2019-03-19T03:34:38.300Z,11.18
2019-03-19T03:37:10.420Z,11.20
2019-03-19T03:39:41.917Z,11.17
2019-03-19T03:42:12.122Z,11.19
2019-03-19T03:44:42.679Z,11.15
2019-03-19T03:47:14.713Z,10.81
2019-03-19T03:49:47.771Z,10.80
2019-03-19T03:52:18.273Z,10.93
2019-03-19T03:54:50.516Z,10.88
2019-03-19T03:57:21.683Z,10.83
2019-03-19T03:59:52.399Z,10.70
2019-03-19T04:02:22.575Z,10.69
2019-03-19T04:04:52.716Z,10.62
2019-03-19T04:07:22.880Z,10.56
2019-03-19T04:09:53.546Z,10.57
2019-03-19T04:12:24.133Z,10.39
2019-03-19T04:14:54.802Z,10.24
2019-03-19T04:17:24.974Z,10.27
2019-03-19T04:19:55.983Z,10.30
2019-03-19T04:22:26.854Z,10.30
2019-03-19T04:24:57.439Z,10.41
2019-03-19T04:27:28.637Z,10.33
2019-03-19T04:30:02.208Z,10.31
2019-03-19T04:32:34.472Z,10.38
2019-03-19T04:35:06.887Z,10.24
2019-03-19T04:37:40.820Z,10.31
2019-03-19T04:40:12.002Z,10.15
2019-03-19T04:42:44.294Z,9.95
2019-03-19T04:45:18.835Z,9.84
2019-03-19T04:47:50.010Z,9.94
2019-03-19T04:50:22.044Z,10.08
2019-03-19T04:52:53.263Z,10.07
2019-03-19T04:55:23.499Z,10.17
2019-03-19T04:57:54.666Z,10.08
2019-03-19T05:00:26.071Z,10.13
2019-03-19T05:02:57.014Z,9.95
2019-03-19T05:05:28.528Z,10.07
2019-03-19T05:08:03.476Z,10.16
2019-03-19T05:10:35.719Z,10.23
2019-03-19T05:13:06.610Z,10.21
2019-03-19T05:15:41.048Z,10.13
2019-03-19T05:18:11.542Z,10.17
2019-03-19T05:20:43.059Z,10.17
2019-03-19T05:23:13.868Z,10.21
2019-03-19T05:25:47.126Z,10.29
2019-03-19T05:28:18.506Z,10.25
2019-03-19T05:30:53.025Z,10.13
2019-03-19T05:33:23.969Z,10.21
2019-03-19T05:35:55.784Z,10.09
2019-03-19T05:38:28.226Z,10.09
2019-03-19T05:41:00.925Z,10.06
2019-03-19T05:43:32.013Z,10.16
2019-03-19T05:46:04.444Z,10.20
2019-03-19T05:48:34.666Z,10.16
2019-03-19T05:51:05.420Z,10.24
2019-03-19T05:53:36.566Z,10.24
2019-03-19T05:56:13.774Z,10.25
2019-03-19T05:58:47.070Z,9.93
2019-03-19T06:01:19.813Z,10.12
2019-03-19T06:03:51.803Z,9.92
2019-03-19T06:06:27.092Z,9.79
2019-03-19T06:09:07.142Z,9.93
2019-03-19T06:11:38.036Z,10.02
2019-03-19T06:14:12.760Z,10.14
2019-03-19T06:16:45.357Z,10.30
2019-03-19T06:19:17.538Z,10.31
2019-03-19T06:21:50.718Z,10.25
2019-03-19T06:24:22.424Z,9.15
2019-03-19T06:26:53.216Z,9.15
2019-03-19T06:29:23.732Z,8.96
2019-03-19T06:31:55.401Z,8.79
2019-03-19T06:34:27.276Z,8.22
2019-03-19T06:36:59.503Z,8.95
2019-03-19T06:39:32.530Z,8.88
2019-03-19T06:42:03.466Z,9.59
2019-03-19T06:44:35.970Z,9.78
2019-03-19T06:47:09.476Z,9.92
2019-03-19T06:49:40.040Z,9.68
2019-03-19T06:52:11.871Z,9.92
2019-03-19T06:54:42.366Z,10.16
2019-03-19T06:57:16.700Z,10.32
2019-03-19T06:59:48.626Z,10.53
2019-03-19T07:02:20.581Z,10.57
2019-03-19T07:04:52.144Z,10.78
2019-03-19T07:07:25.193Z,10.76
2019-03-19T07:09:55.354Z,10.77
2019-03-19T07:12:27.966Z,10.68
2019-03-19T07:14:59.464Z,10.20
2019-03-19T07:17:31.649Z,10.57
2019-03-19T07:20:02.635Z,10.87
2019-03-19T07:22:34.669Z,11.03
2019-03-19T07:25:07.340Z,11.02
2019-03-19T07:27:39.273Z,11.17
2019-03-19T07:30:25.416Z,11.03
2019-03-19T07:32:58.124Z,11.09
2019-03-19T07:35:29.704Z,10.63
2019-03-19T07:38:00.985Z,11.04
2019-03-19T07:40:34.078Z,10.96
2019-03-19T07:43:06.152Z,11.17
2019-03-19T07:45:36.918Z,11.44
2019-03-19T07:48:08.463Z,10.93
2019-03-19T07:50:39.052Z,10.44
2019-03-19T07:53:09.580Z,10.93
2019-03-19T07:55:40.665Z,10.90
2019-03-19T07:58:12.303Z,10.97
2019-03-19T08:00:45.213Z,10.55
2019-03-19T08:03:18.156Z,10.50
2019-03-19T08:05:48.819Z,11.00
2019-03-19T08:08:19.095Z,11.02
2019-03-19T08:10:50.630Z,11.05
2019-03-19T08:13:24.628Z,11.35
2019-03-19T08:15:58.053Z,11.45
2019-03-19T08:18:29.888Z,11.58
2019-03-19T08:21:05.697Z,10.86
2019-03-19T08:23:40.565Z,11.53
2019-03-19T08:26:13.296Z,11.89
2019-03-19T08:28:55.022Z,11.98
2019-03-19T08:31:19.314Z,12.17
2019-03-19T08:33:55.363Z,11.87
2019-03-19T08:36:27.562Z,11.81
2019-03-19T08:38:59.377Z,12.27
2019-03-19T08:41:31.955Z,12.17
2019-03-19T08:44:03.187Z,12.15
2019-03-19T08:46:33.736Z,12.22
2019-03-19T08:49:06.470Z,12.45
2019-03-19T08:51:38.197Z,12.67
2019-03-19T08:54:09.398Z,12.45
2019-03-19T08:56:40.857Z,12.83
2019-03-19T08:59:25.466Z,12.32
2019-03-19T09:01:55.480Z,12.44
2019-03-19T09:04:28.116Z,12.59
2019-03-19T09:06:59.163Z,12.29
2019-03-19T09:09:33.599Z,12.44
2019-03-19T09:12:08.459Z,12.72
2019-03-19T09:14:45.208Z,13.07
2019-03-19T09:17:19.583Z,13.19
2019-03-19T09:19:57.487Z,13.21
2019-03-19T09:22:31.704Z,13.62
2019-03-19T09:25:04.881Z,13.69
2019-03-19T09:27:40.581Z,13.74
2019-03-19T09:30:16.630Z,13.99
2019-03-19T09:32:48.341Z,14.42
2019-03-19T09:35:19.895Z,14.38
2019-03-19T09:37:58.435Z,14.58
2019-03-19T09:40:27.127Z,14.51
2019-03-19T09:42:58.359Z,14.82
2019-03-19T09:45:33.037Z,14.76
2019-03-19T09:48:06.449Z,15.08
2019-03-19T09:50:38.661Z,15.12
2019-03-19T09:53:09.972Z,15.10
2019-03-19T09:55:42.275Z,15.22
2019-03-19T09:58:13.332Z,15.32
2019-03-19T10:00:46.129Z,15.36
2019-03-19T10:03:18.659Z,15.85
2019-03-19T10:05:52.271Z,15.75
2019-03-19T10:08:23.210Z,15.79
2019-03-19T10:10:54.416Z,16.41
2019-03-19T10:13:27.456Z,16.72
2019-03-19T10:15:58.692Z,17.04
2019-03-19T10:18:30.916Z,17.21
2019-03-19T10:21:02.683Z,16.45
2019-03-19T10:23:34.718Z,16.94
2019-03-19T10:26:10.228Z,16.36
2019-03-19T10:28:59.297Z,17.06
2019-03-19T10:31:36.572Z,17.12
2019-03-19T10:34:10.182Z,16.84
2019-03-19T10:36:46.517Z,16.85
2019-03-19T10:39:21.319Z,16.10
2019-03-19T10:41:54.341Z,16.64
2019-03-19T10:44:26.685Z,16.36
2019-03-19T10:46:57.820Z,16.17
2019-03-19T10:49:28.419Z,16.89
2019-03-19T10:52:01.162Z,17.31
2019-03-19T10:54:31.757Z,17.67
2019-03-19T10:57:02.099Z,17.80
2019-03-19T10:59:32.765Z,17.61
2019-03-19T11:02:04.379Z,17.93
2019-03-19T11:04:34.847Z,17.25
2019-03-19T11:07:07.490Z,17.97
2019-03-19T11:09:38.485Z,18.28
2019-03-19T11:12:10.656Z,18.63
2019-03-19T11:14:41.765Z,18.68
2019-03-19T11:17:12.766Z,18.33
2019-03-19T11:19:42.979Z,18.33
2019-03-19T11:22:13.674Z,18.93
2019-03-19T11:24:45.240Z,19.11
2019-03-19T11:27:15.578Z,19.30
2019-03-19T11:29:47.896Z,19.38
2019-03-19T11:32:19.319Z,19.62
2019-03-19T11:34:52.495Z,20.07
2019-03-19T11:37:25.974Z,20.44
2019-03-19T11:39:59.254Z,20.44
2019-03-19T11:42:30.999Z,19.79
2019-03-19T11:45:02.141Z,20.00
2019-03-19T11:47:34.774Z,20.31
2019-03-19T11:50:08.131Z,20.54
2019-03-19T11:52:40.255Z,20.07
2019-03-19T11:55:14.018Z,20.58
2019-03-19T11:57:46.164Z,20.56
2019-03-19T12:00:28.774Z,21.00
2019-03-19T12:03:10.890Z,20.49
2019-03-19T12:05:32.700Z,20.51
2019-03-19T12:08:03.192Z,20.80
2019-03-19T12:10:35.860Z,21.08
2019-03-19T12:13:08.288Z,20.65
2019-03-19T12:15:38.910Z,21.04
2019-03-19T12:18:10.722Z,20.86
2019-03-19T12:20:41.260Z,20.78
2019-03-19T12:23:11.452Z,21.42
2019-03-19T12:25:42.866Z,21.96
2019-03-19T12:28:13.813Z,22.24
2019-03-19T12:30:46.664Z,22.17
2019-03-19T12:33:18.245Z,21.62
2019-03-19T12:35:48.511Z,22.74
2019-03-19T12:38:19.072Z,22.70
2019-03-19T12:40:52.986Z,23.84
2019-03-19T12:43:23.637Z,24.46
2019-03-19T12:45:54.283Z,26.03
2019-03-19T12:48:26.226Z,25.16
2019-03-19T12:50:56.474Z,27.14
2019-03-19T12:53:27.967Z,28.55
2019-03-19T12:55:58.607Z,28.22
2019-03-19T12:58:29.736Z,29.93
2019-03-19T13:00:59.938Z,31.41
2019-03-19T13:03:30.471Z,32.49
2019-03-19T13:06:00.679Z,33.44
2019-03-19T13:08:30.901Z,33.63
2019-03-19T13:11:01.146Z,33.24
2019-03-19T13:13:31.907Z,33.45
2019-03-19T13:16:02.442Z,34.75
2019-03-19T13:18:33.673Z,34.08
2019-03-19T13:21:03.841Z,35.84
2019-03-19T13:23:34.019Z,36.48
2019-03-19T13:26:05.047Z,36.74
2019-03-19T13:28:35.810Z,36.57
2019-03-19T13:31:08.460Z,36.92
2019-03-19T13:33:39.746Z,37.90
2019-03-19T13:36:10.402Z,37.64
2019-03-19T13:38:43.242Z,37.33
2019-03-19T13:41:14.005Z,37.54
2019-03-19T13:43:44.894Z,37.05
2019-03-19T13:46:15.409Z,36.84
2019-03-19T13:48:47.169Z,37.76
2019-03-19T13:51:18.789Z,36.95
2019-03-19T13:53:57.231Z,36.63
2019-03-19T13:56:33.123Z,37.30
2019-03-19T13:59:11.132Z,37.45
2019-03-19T14:01:44.115Z,37.51
2019-03-19T14:04:15.905Z,37.39
2019-03-19T14:06:46.696Z,38.00
2019-03-19T14:09:18.496Z,37.48
2019-03-19T14:11:48.698Z,37.60
2019-03-19T14:14:19.799Z,37.86
2019-03-19T14:16:50.000Z,36.89
2019-03-19T14:19:20.188Z,37.22
2019-03-19T14:21:52.054Z,37.57
2019-03-19T14:24:22.739Z,37.22
2019-03-19T14:26:56.297Z,35.83
2019-03-19T14:29:27.765Z,36.37
2019-03-19T14:31:59.142Z,36.17
2019-03-19T14:34:30.109Z,36.62
2019-03-19T14:37:01.045Z,35.96
2019-03-19T14:39:31.214Z,35.98
2019-03-19T14:42:01.923Z,34.43
2019-03-19T14:44:34.171Z,32.26
2019-03-19T14:47:05.014Z,30.10
2019-03-19T14:49:46.079Z,28.73
2019-03-19T14:52:07.941Z,27.42
2019-03-19T14:54:38.142Z,26.23
2019-03-19T14:57:08.353Z,25.84
2019-03-19T14:59:39.289Z,25.21
2019-03-19T15:02:09.490Z,24.72
2019-03-19T15:04:40.713Z,24.46
2019-03-19T15:07:10.898Z,24.24
2019-03-19T15:09:41.102Z,23.84
2019-03-19T15:12:13.560Z,23.38
2019-03-19T15:14:48.616Z,22.89
2019-03-19T15:17:19.025Z,21.79
2019-03-19T15:19:49.266Z,21.82
2019-03-19T15:22:19.475Z,21.73
2019-03-19T15:24:50.533Z,21.35
2019-03-19T15:27:21.644Z,21.23
2019-03-19T15:29:52.402Z,20.89
2019-03-19T15:32:27.163Z,20.90
2019-03-19T15:34:57.188Z,20.68
2019-03-19T15:37:27.365Z,20.65
2019-03-19T15:39:58.078Z,20.59
2019-03-19T15:42:32.708Z,20.48
2019-03-19T15:45:04.362Z,20.43
2019-03-19T15:47:34.634Z,20.24
2019-03-19T15:50:10.916Z,20.20
2019-03-19T15:52:42.002Z,19.68
2019-03-19T15:55:13.582Z,19.85
2019-03-19T15:57:43.859Z,19.41
2019-03-19T16:00:15.599Z,19.51
2019-03-19T16:02:46.661Z,19.49
2019-03-19T16:05:17.473Z,19.17
2019-03-19T16:07:52.004Z,18.80
2019-03-19T16:10:23.696Z,18.91
2019-03-19T16:12:54.191Z,18.99
2019-03-19T16:15:24.477Z,19.04
2019-03-19T16:17:55.430Z,19.10
2019-03-19T16:20:28.162Z,19.19
2019-03-19T16:22:58.413Z,18.99
2019-03-19T16:25:28.566Z,19.01
2019-03-19T16:28:00.775Z,18.85
2019-03-19T16:30:33.481Z,18.90
2019-03-19T16:33:05.475Z,18.90
2019-03-19T16:35:35.700Z,18.90
2019-03-19T16:38:07.430Z,18.91
2019-03-19T16:40:42.900Z,18.93
2019-03-19T16:43:21.809Z,18.84
2019-03-19T16:45:52.417Z,18.81
2019-03-19T16:48:23.050Z,18.77
2019-03-19T16:50:56.224Z,18.61
2019-03-19T16:53:26.810Z,18.62
2019-03-19T16:55:57.947Z,18.62
2019-03-19T16:58:28.422Z,18.59
2019-03-19T17:00:59.365Z,18.50
2019-03-19T17:03:29.595Z,18.43
2019-03-19T17:06:00.209Z,18.36
2019-03-19T17:08:30.424Z,18.37
2019-03-19T17:11:03.835Z,18.32
2019-03-19T17:13:34.070Z,18.15
2019-03-19T17:16:04.375Z,18.10
2019-03-19T17:18:34.615Z,18.14
2019-03-19T17:21:05.785Z,18.08
2019-03-19T17:23:35.956Z,18.04
2019-03-19T17:26:09.300Z,18.01
2019-03-19T17:28:41.397Z,17.98
2019-03-19T17:31:13.397Z,17.90
2019-03-19T17:33:45.067Z,17.89
2019-03-19T17:36:16.314Z,17.85
2019-03-19T17:38:46.899Z,17.82
2019-03-19T17:41:18.016Z,17.78
2019-03-19T17:43:49.160Z,17.75
2019-03-19T17:46:20.931Z,17.68
2019-03-19T17:48:52.326Z,17.63
2019-03-19T17:51:23.955Z,17.51
2019-03-19T17:53:57.510Z,17.54
2019-03-19T17:56:46.846Z,17.49
2019-03-19T17:59:20.377Z,17.41
2019-03-19T18:01:52.108Z,17.36
2019-03-19T18:04:22.325Z,17.34
2019-03-19T18:06:52.510Z,17.21
2019-03-19T18:09:23.825Z,17.18
2019-03-19T18:11:55.872Z,17.19
2019-03-19T18:14:28.841Z,17.13
2019-03-19T18:16:59.381Z,17.06
2019-03-19T18:19:30.442Z,17.07
2019-03-19T18:22:01.916Z,17.04
2019-03-19T18:24:32.203Z,16.97
2019-03-19T18:27:02.407Z,16.91
2019-03-19T18:29:35.592Z,16.89
2019-03-19T18:32:06.195Z,16.85
2019-03-19T18:34:37.530Z,16.76
2019-03-19T18:37:09.019Z,16.72
2019-03-19T18:39:40.696Z,16.66
2019-03-19T18:42:12.196Z,16.67
2019-03-19T18:44:43.649Z,16.63
2019-03-19T18:47:14.206Z,16.60
2019-03-19T18:49:44.803Z,16.58
2019-03-19T18:52:16.405Z,16.60
2019-03-19T18:54:50.348Z,16.55
2019-03-19T18:57:21.630Z,16.47
2019-03-19T18:59:53.723Z,16.48
2019-03-19T19:02:25.333Z,16.47
2019-03-19T19:05:19.817Z,16.46
2019-03-19T19:07:51.685Z,16.42
2019-03-19T19:10:23.085Z,16.40
2019-03-19T19:12:54.867Z,16.38
2019-03-19T19:15:26.300Z,16.33
2019-03-19T19:17:56.834Z,16.34
2019-03-19T19:20:29.788Z,16.30
2019-03-19T19:23:03.047Z,16.30
2019-03-19T19:25:34.153Z,16.29
2019-03-19T19:28:04.640Z,16.27
2019-03-19T19:30:38.231Z,16.25
2019-03-19T19:33:08.471Z,16.23
2019-03-19T19:35:40.046Z,16.17
2019-03-19T19:38:10.567Z,16.16
2019-03-19T19:40:41.898Z,16.14
2019-03-19T19:43:12.052Z,16.04
2019-03-19T19:45:43.648Z,16.07
2019-03-19T19:48:14.309Z,16.10
2019-03-19T19:50:53.289Z,16.09
2019-03-19T19:53:27.590Z,16.06
2019-03-19T19:55:58.214Z,15.99
2019-03-19T19:58:28.793Z,16.01
2019-03-19T20:00:59.957Z,16.02
2019-03-19T20:03:31.090Z,16.01
2019-03-19T20:06:01.848Z,16.01
2019-03-19T20:08:32.100Z,16.00
2019-03-19T20:11:02.299Z,15.96
2019-03-19T20:13:32.581Z,15.88
2019-03-19T20:16:03.574Z,15.96
2019-03-19T20:18:34.666Z,15.95
2019-03-19T20:21:05.475Z,15.91
2019-03-19T20:23:45.301Z,15.93
2019-03-19T20:26:17.522Z,15.89
2019-03-19T20:28:48.665Z,15.88
2019-03-19T20:31:20.452Z,15.83
2019-03-19T20:33:50.620Z,15.82
2019-03-19T20:36:21.281Z,15.79
2019-03-19T20:38:52.653Z,15.77
2019-03-19T20:41:23.205Z,15.78
2019-03-19T20:43:54.344Z,15.73
2019-03-19T20:46:26.133Z,15.71
2019-03-19T20:48:59.027Z,15.74
2019-03-19T20:51:30.063Z,15.70
2019-03-19T20:54:00.210Z,15.69
2019-03-19T20:56:42.832Z,15.67
2019-03-19T20:59:15.889Z,15.53
2019-03-19T21:01:47.125Z,15.33
2019-03-19T21:04:17.702Z,15.19
2019-03-19T21:06:49.089Z,15.13
2019-03-19T21:09:21.171Z,14.91
2019-03-19T21:11:53.447Z,14.88
2019-03-19T21:14:25.553Z,14.88
2019-03-19T21:17:02.104Z,15.06
2019-03-19T21:19:33.760Z,15.17
2019-03-19T21:22:04.872Z,15.18
2019-03-19T21:24:35.088Z,15.21
2019-03-19T21:27:05.327Z,15.23
2019-03-19T21:29:36.065Z,15.20
2019-03-19T21:32:07.872Z,15.02
2019-03-19T21:34:38.635Z,15.05
2019-03-19T21:37:10.141Z,14.95
2019-03-19T21:39:40.523Z,14.90
2019-03-19T21:42:12.348Z,14.85
2019-03-19T21:44:43.517Z,14.92
2019-03-19T21:47:15.510Z,14.84
2019-03-19T21:49:47.606Z,14.59
2019-03-19T21:52:18.287Z,14.51
2019-03-19T21:54:48.541Z,14.41
2019-03-19T21:57:18.855Z,14.38
2019-03-19T21:59:50.167Z,14.39
2019-03-19T22:02:21.949Z,14.40
2019-03-19T22:04:53.851Z,14.23
2019-03-19T22:07:24.148Z,14.34
2019-03-19T22:09:55.209Z,14.24
2019-03-19T22:12:25.487Z,14.26
2019-03-19T22:14:55.967Z,14.21
2019-03-19T22:17:27.364Z,13.78
2019-03-19T22:19:58.570Z,14.17
2019-03-19T22:22:29.922Z,14.14
2019-03-19T22:25:01.026Z,14.12
2019-03-19T22:27:31.630Z,13.94
2019-03-19T22:30:01.861Z,13.98
2019-03-19T22:32:34.782Z,13.86
2019-03-19T22:35:05.719Z,13.93
2019-03-19T22:37:37.802Z,13.85
2019-03-19T22:40:11.781Z,13.95
2019-03-19T22:42:43.153Z,13.55
2019-03-19T22:45:14.944Z,13.25
2019-03-19T22:47:46.834Z,13.11
2019-03-19T22:50:18.048Z,12.51
2019-03-19T22:52:48.431Z,12.21
2019-03-19T22:55:28.591Z,12.60
2019-03-19T22:57:52.794Z,12.50
2019-03-19T23:00:40.297Z,12.36
2019-03-19T23:03:12.924Z,12.52
2019-03-19T23:05:43.850Z,12.58
2019-03-19T23:08:14.456Z,12.63
2019-03-19T23:10:45.076Z,12.59
2019-03-19T23:13:17.675Z,12.11
2019-03-19T23:15:47.941Z,12.39
2019-03-19T23:18:18.492Z,12.21
2019-03-19T23:20:54.333Z,12.34
2019-03-19T23:23:24.922Z,12.15
2019-03-19T23:25:55.954Z,12.09
2019-03-19T23:28:26.146Z,12.17
2019-03-19T23:30:57.336Z,12.33
2019-03-19T23:33:27.970Z,12.05
2019-03-19T23:35:59.281Z,11.91
2019-03-19T23:38:32.467Z,11.90
2019-03-19T23:41:03.181Z,11.82
2019-03-19T23:43:33.352Z,11.75
2019-03-19T23:46:03.602Z,11.40
2019-03-19T23:48:33.862Z,11.44
2019-03-19T23:51:04.507Z,11.36
2019-03-19T23:53:34.738Z,11.25
2019-03-19T23:56:05.616Z,11.31
2019-03-19T23:58:36.146Z,11.40
